sensor_id;sensor_type;location;lat;lon;timestamp;P1;durP1;ratioP1;P2;durP2;ratioP2
63114;SDS011;49208;50.874;6.466;2022-09-01T00:01:55;7.45;;;4.28;;
63114;SDS011;49208;50.874;6.466;2022-09-01T00:04:22;5.18;;;3.90;;
63114;SDS011;49208;50.874;6.466;2022-09-01T00:06:52;7.13;;;4.00;;
63114;SDS011;49208;50.874;6.466;2022-09-01T00:09:19;5.35;;;4.07;;
63114;SDS011;49208;50.874;6.466;2022-09-01T00:14:13;6.38;;;4.60;;
63114;SDS011;49208;50.874;6.466;2022-09-01T00:16:38;6.95;;;3.97;;
63114;SDS011;49208;50.874;6.466;2022-09-01T00:19:04;8.73;;;4.43;;
63114;SDS011;49208;50.874;6.466;2022-09-01T00:21:32;6.75;;;4.03;;
63114;SDS011;49208;50.874;6.466;2022-09-01T00:24:03;10.13;;;3.65;;
63114;SDS011;49208;50.874;6.466;2022-09-01T00:26:28;9.60;;;3.70;;
63114;SDS011;49208;50.874;6.466;2022-09-01T00:28:54;8.25;;;3.53;;
63114;SDS011;49208;50.874;6.466;2022-09-01T00:31:20;5.95;;;3.45;;
63114;SDS011;49208;50.874;6.466;2022-09-01T00:33:47;5.10;;;3.55;;
63114;SDS011;49208;50.874;6.466;2022-09-01T00:36:13;7.47;;;3.63;;
63114;SDS011;49208;50.874;6.466;2022-09-01T00:38:39;7.47;;;3.80;;
63114;SDS011;49208;50.874;6.466;2022-09-01T00:41:05;6.53;;;3.53;;
63114;SDS011;49208;50.874;6.466;2022-09-01T00:43:40;9.20;;;3.53;;
63114;SDS011;49208;50.874;6.466;2022-09-01T00:46:11;9.38;;;3.55;;
63114;SDS011;49208;50.874;6.466;2022-09-01T00:48:39;7.60;;;3.65;;
63114;SDS011;49208;50.874;6.466;2022-09-01T00:51:06;6.20;;;3.70;;
63114;SDS011;49208;50.874;6.466;2022-09-01T00:53:33;7.35;;;3.75;;
63114;SDS011;49208;50.874;6.466;2022-09-01T00:56:00;6.32;;;3.65;;
63114;SDS011;49208;50.874;6.466;2022-09-01T00:58:26;6.00;;;3.70;;
63114;SDS011;49208;50.874;6.466;2022-09-01T01:00:52;6.38;;;4.03;;
63114;SDS011;49208;50.874;6.466;2022-09-01T01:03:18;7.95;;;3.85;;
63114;SDS011;49208;50.874;6.466;2022-09-01T01:05:45;7.80;;;3.70;;
63114;SDS011;49208;50.874;6.466;2022-09-01T01:08:17;6.85;;;3.80;;
63114;SDS011;49208;50.874;6.466;2022-09-01T01:10:51;7.95;;;3.83;;
63114;SDS011;49208;50.874;6.466;2022-09-01T01:13:16;6.95;;;3.60;;
63114;SDS011;49208;50.874;6.466;2022-09-01T01:15:42;6.65;;;3.83;;
63114;SDS011;49208;50.874;6.466;2022-09-01T01:18:12;7.90;;;3.70;;
63114;SDS011;49208;50.874;6.466;2022-09-01T01:20:38;5.50;;;4.00;;
63114;SDS011;49208;50.874;6.466;2022-09-01T01:23:34;6.45;;;3.63;;
63114;SDS011;49208;50.874;6.466;2022-09-01T01:26:06;7.18;;;3.67;;
63114;SDS011;49208;50.874;6.466;2022-09-01T01:28:37;5.40;;;3.38;;
63114;SDS011;49208;50.874;6.466;2022-09-01T01:31:06;8.52;;;4.18;;
63114;SDS011;49208;50.874;6.466;2022-09-01T01:36:09;5.70;;;3.75;;
63114;SDS011;49208;50.874;6.466;2022-09-01T01:38:41;6.13;;;3.65;;
63114;SDS011;49208;50.874;6.466;2022-09-01T01:41:11;6.28;;;3.92;;
63114;SDS011;49208;50.874;6.466;2022-09-01T01:43:37;6.07;;;3.53;;
63114;SDS011;49208;50.874;6.466;2022-09-01T01:46:05;5.65;;;3.80;;
63114;SDS011;49208;50.874;6.466;2022-09-01T01:48:33;7.35;;;4.00;;
63114;SDS011;49208;50.874;6.466;2022-09-01T01:51:02;5.32;;;3.67;;
63114;SDS011;49208;50.874;6.466;2022-09-01T01:53:29;5.80;;;3.78;;
63114;SDS011;49208;50.874;6.466;2022-09-01T01:55:55;5.93;;;3.67;;
63114;SDS011;49208;50.874;6.466;2022-09-01T01:58:24;5.93;;;3.33;;
63114;SDS011;49208;50.874;6.466;2022-09-01T02:00:51;5.18;;;3.70;;
63114;SDS011;49208;50.874;6.466;2022-09-01T02:03:19;8.65;;;4.07;;
63114;SDS011;49208;50.874;6.466;2022-09-01T02:05:47;5.72;;;3.67;;
63114;SDS011;49208;50.874;6.466;2022-09-01T02:08:14;11.52;;;4.47;;
63114;SDS011;49208;50.874;6.466;2022-09-01T02:10:45;7.70;;;3.95;;
63114;SDS011;49208;50.874;6.466;2022-09-01T02:13:13;10.88;;;4.22;;
63114;SDS011;49208;50.874;6.466;2022-09-01T02:15:42;9.13;;;4.47;;
63114;SDS011;49208;50.874;6.466;2022-09-01T02:18:14;7.85;;;4.35;;
63114;SDS011;49208;50.874;6.466;2022-09-01T02:20:48;11.43;;;4.10;;
63114;SDS011;49208;50.874;6.466;2022-09-01T02:23:15;9.18;;;4.72;;
63114;SDS011;49208;50.874;6.466;2022-09-01T02:25:47;8.38;;;4.40;;
63114;SDS011;49208;50.874;6.466;2022-09-01T02:28:15;6.93;;;4.50;;
63114;SDS011;49208;50.874;6.466;2022-09-01T02:30:45;10.95;;;3.72;;
63114;SDS011;49208;50.874;6.466;2022-09-01T02:33:14;10.15;;;4.85;;
63114;SDS011;49208;50.874;6.466;2022-09-01T02:35:47;7.82;;;4.13;;
63114;SDS011;49208;50.874;6.466;2022-09-01T02:38:14;7.32;;;4.07;;
63114;SDS011;49208;50.874;6.466;2022-09-01T02:40:42;6.35;;;4.15;;
63114;SDS011;49208;50.874;6.466;2022-09-01T02:45:36;10.82;;;4.45;;
63114;SDS011;49208;50.874;6.466;2022-09-01T02:48:03;6.40;;;4.15;;
63114;SDS011;49208;50.874;6.466;2022-09-01T02:50:32;7.63;;;4.20;;
63114;SDS011;49208;50.874;6.466;2022-09-01T02:52:57;7.07;;;3.88;;
63114;SDS011;49208;50.874;6.466;2022-09-01T02:55:26;6.53;;;3.80;;
63114;SDS011;49208;50.874;6.466;2022-09-01T02:57:52;7.72;;;3.92;;
63114;SDS011;49208;50.874;6.466;2022-09-01T03:00:22;6.85;;;4.03;;
63114;SDS011;49208;50.874;6.466;2022-09-01T03:02:53;6.55;;;4.10;;
63114;SDS011;49208;50.874;6.466;2022-09-01T03:05:24;9.07;;;4.20;;
63114;SDS011;49208;50.874;6.466;2022-09-01T03:07:55;6.78;;;3.90;;
63114;SDS011;49208;50.874;6.466;2022-09-01T03:10:24;6.63;;;4.03;;
63114;SDS011;49208;50.874;6.466;2022-09-01T03:12:57;7.25;;;4.10;;
63114;SDS011;49208;50.874;6.466;2022-09-01T03:15:24;6.43;;;3.90;;
63114;SDS011;49208;50.874;6.466;2022-09-01T03:17:51;7.43;;;3.85;;
63114;SDS011;49208;50.874;6.466;2022-09-01T03:20:16;5.93;;;3.75;;
63114;SDS011;49208;50.874;6.466;2022-09-01T03:22:43;6.53;;;3.45;;
63114;SDS011;49208;50.874;6.466;2022-09-01T03:25:09;5.10;;;3.47;;
63114;SDS011;49208;50.874;6.466;2022-09-01T03:27:34;5.88;;;3.78;;
63114;SDS011;49208;50.874;6.466;2022-09-01T03:29:59;5.65;;;3.03;;
63114;SDS011;49208;50.874;6.466;2022-09-01T03:32:25;6.70;;;3.72;;
63114;SDS011;49208;50.874;6.466;2022-09-01T03:34:50;5.13;;;3.42;;
63114;SDS011;49208;50.874;6.466;2022-09-01T03:37:16;6.18;;;3.20;;
63114;SDS011;49208;50.874;6.466;2022-09-01T03:39:42;6.50;;;3.67;;
63114;SDS011;49208;50.874;6.466;2022-09-01T03:42:08;6.78;;;3.97;;
63114;SDS011;49208;50.874;6.466;2022-09-01T03:44:36;5.03;;;3.28;;
63114;SDS011;49208;50.874;6.466;2022-09-01T03:47:05;6.15;;;3.65;;
63114;SDS011;49208;50.874;6.466;2022-09-01T03:49:34;7.50;;;4.10;;
63114;SDS011;49208;50.874;6.466;2022-09-01T03:52:00;5.75;;;3.80;;
63114;SDS011;49208;50.874;6.466;2022-09-01T03:54:26;5.07;;;2.92;;
63114;SDS011;49208;50.874;6.466;2022-09-01T03:56:54;6.03;;;3.70;;
63114;SDS011;49208;50.874;6.466;2022-09-01T03:59:22;8.20;;;3.90;;
63114;SDS011;49208;50.874;6.466;2022-09-01T04:04:14;8.82;;;4.40;;
63114;SDS011;49208;50.874;6.466;2022-09-01T04:06:41;9.52;;;5.43;;
63114;SDS011;49208;50.874;6.466;2022-09-01T04:09:08;13.75;;;4.88;;
63114;SDS011;49208;50.874;6.466;2022-09-01T04:11:35;8.35;;;4.68;;
63114;SDS011;49208;50.874;6.466;2022-09-01T04:14:03;9.70;;;4.70;;
63114;SDS011;49208;50.874;6.466;2022-09-01T04:16:30;10.47;;;4.33;;
63114;SDS011;49208;50.874;6.466;2022-09-01T04:19:16;8.32;;;3.95;;
63114;SDS011;49208;50.874;6.466;2022-09-01T04:21:59;9.05;;;4.63;;
63114;SDS011;49208;50.874;6.466;2022-09-01T04:24:25;10.43;;;5.13;;
63114;SDS011;49208;50.874;6.466;2022-09-01T04:26:53;8.77;;;4.78;;
63114;SDS011;49208;50.874;6.466;2022-09-01T04:29:21;7.93;;;4.18;;
63114;SDS011;49208;50.874;6.466;2022-09-01T04:31:54;5.85;;;3.60;;
63114;SDS011;49208;50.874;6.466;2022-09-01T04:34:21;6.72;;;3.97;;
63114;SDS011;49208;50.874;6.466;2022-09-01T04:39:20;6.97;;;4.30;;
63114;SDS011;49208;50.874;6.466;2022-09-01T04:41:47;6.25;;;4.10;;
63114;SDS011;49208;50.874;6.466;2022-09-01T04:44:15;6.65;;;4.05;;
63114;SDS011;49208;50.874;6.466;2022-09-01T04:46:43;6.35;;;3.92;;
63114;SDS011;49208;50.874;6.466;2022-09-01T04:49:14;5.82;;;3.88;;
63114;SDS011;49208;50.874;6.466;2022-09-01T04:51:48;8.95;;;4.40;;
63114;SDS011;49208;50.874;6.466;2022-09-01T04:54:16;5.88;;;3.92;;
63114;SDS011;49208;50.874;6.466;2022-09-01T04:56:43;5.70;;;3.55;;
63114;SDS011;49208;50.874;6.466;2022-09-01T04:59:12;6.93;;;4.63;;
63114;SDS011;49208;50.874;6.466;2022-09-01T05:01:38;8.80;;;4.80;;
63114;SDS011;49208;50.874;6.466;2022-09-01T05:04:09;6.18;;;4.07;;
63114;SDS011;49208;50.874;6.466;2022-09-01T05:06:42;7.38;;;4.25;;
63114;SDS011;49208;50.874;6.466;2022-09-01T05:09:11;7.18;;;4.13;;
63114;SDS011;49208;50.874;6.466;2022-09-01T05:11:38;5.72;;;3.67;;
63114;SDS011;49208;50.874;6.466;2022-09-01T05:14:09;6.50;;;4.28;;
63114;SDS011;49208;50.874;6.466;2022-09-01T05:16:38;6.07;;;4.38;;
63114;SDS011;49208;50.874;6.466;2022-09-01T05:19:07;5.63;;;3.72;;
63114;SDS011;49208;50.874;6.466;2022-09-01T05:21:39;6.22;;;3.45;;
63114;SDS011;49208;50.874;6.466;2022-09-01T05:24:09;6.13;;;4.47;;
63114;SDS011;49208;50.874;6.466;2022-09-01T05:26:35;8.25;;;4.38;;
63114;SDS011;49208;50.874;6.466;2022-09-01T05:29:03;5.72;;;4.00;;
63114;SDS011;49208;50.874;6.466;2022-09-01T05:31:34;7.07;;;4.53;;
63114;SDS011;49208;50.874;6.466;2022-09-01T05:34:02;6.60;;;4.20;;
63114;SDS011;49208;50.874;6.466;2022-09-01T05:36:29;8.00;;;4.93;;
63114;SDS011;49208;50.874;6.466;2022-09-01T05:38:58;6.28;;;4.50;;
63114;SDS011;49208;50.874;6.466;2022-09-01T05:41:25;5.95;;;3.78;;
63114;SDS011;49208;50.874;6.466;2022-09-01T05:43:50;9.68;;;5.15;;
63114;SDS011;49208;50.874;6.466;2022-09-01T05:46:19;9.77;;;4.97;;
63114;SDS011;49208;50.874;6.466;2022-09-01T05:48:47;7.72;;;4.47;;
63114;SDS011;49208;50.874;6.466;2022-09-01T05:51:18;7.70;;;5.05;;
63114;SDS011;49208;50.874;6.466;2022-09-01T05:53:47;9.77;;;4.85;;
63114;SDS011;49208;50.874;6.466;2022-09-01T05:56:16;13.10;;;4.53;;
63114;SDS011;49208;50.874;6.466;2022-09-01T05:58:43;12.70;;;6.18;;
63114;SDS011;49208;50.874;6.466;2022-09-01T06:01:22;13.27;;;5.60;;
63114;SDS011;49208;50.874;6.466;2022-09-01T06:03:50;11.35;;;4.75;;
63114;SDS011;49208;50.874;6.466;2022-09-01T06:06:19;11.07;;;5.93;;
63114;SDS011;49208;50.874;6.466;2022-09-01T06:08:47;9.75;;;6.05;;
63114;SDS011;49208;50.874;6.466;2022-09-01T06:11:13;12.70;;;5.03;;
63114;SDS011;49208;50.874;6.466;2022-09-01T06:13:40;12.55;;;6.07;;
63114;SDS011;49208;50.874;6.466;2022-09-01T06:16:09;10.23;;;5.28;;
63114;SDS011;49208;50.874;6.466;2022-09-01T06:18:36;10.20;;;4.57;;
63114;SDS011;49208;50.874;6.466;2022-09-01T06:21:03;7.80;;;3.73;;
63114;SDS011;49208;50.874;6.466;2022-09-01T06:23:29;7.22;;;3.58;;
63114;SDS011;49208;50.874;6.466;2022-09-01T06:25:55;12.52;;;3.60;;
63114;SDS011;49208;50.874;6.466;2022-09-01T06:28:20;7.68;;;4.18;;
63114;SDS011;49208;50.874;6.466;2022-09-01T06:30:48;5.70;;;3.50;;
63114;SDS011;49208;50.874;6.466;2022-09-01T06:33:15;6.93;;;3.65;;
63114;SDS011;49208;50.874;6.466;2022-09-01T06:35:41;6.57;;;3.30;;
63114;SDS011;49208;50.874;6.466;2022-09-01T06:38:08;7.35;;;2.60;;
63114;SDS011;49208;50.874;6.466;2022-09-01T06:40:35;7.38;;;2.70;;
63114;SDS011;49208;50.874;6.466;2022-09-01T06:43:03;5.30;;;2.42;;
63114;SDS011;49208;50.874;6.466;2022-09-01T06:45:32;4.97;;;2.80;;
63114;SDS011;49208;50.874;6.466;2022-09-01T06:48:10;7.43;;;2.53;;
63114;SDS011;49208;50.874;6.466;2022-09-01T06:50:40;5.28;;;2.63;;
63114;SDS011;49208;50.874;6.466;2022-09-01T06:53:06;4.70;;;2.53;;
63114;SDS011;49208;50.874;6.466;2022-09-01T06:55:36;4.40;;;2.75;;
63114;SDS011;49208;50.874;6.466;2022-09-01T06:58:03;4.88;;;2.25;;
63114;SDS011;49208;50.874;6.466;2022-09-01T07:00:31;6.00;;;2.60;;
63114;SDS011;49208;50.874;6.466;2022-09-01T07:03:06;5.70;;;2.50;;
63114;SDS011;49208;50.874;6.466;2022-09-01T07:05:33;5.47;;;2.67;;
63114;SDS011;49208;50.874;6.466;2022-09-01T07:08:10;4.80;;;3.25;;
63114;SDS011;49208;50.874;6.466;2022-09-01T07:10:42;4.82;;;2.90;;
63114;SDS011;49208;50.874;6.466;2022-09-01T07:13:13;5.82;;;2.55;;
63114;SDS011;49208;50.874;6.466;2022-09-01T07:15:46;5.38;;;2.38;;
63114;SDS011;49208;50.874;6.466;2022-09-01T07:18:14;4.57;;;2.55;;
63114;SDS011;49208;50.874;6.466;2022-09-01T07:20:41;5.40;;;2.40;;
63114;SDS011;49208;50.874;6.466;2022-09-01T07:23:08;4.95;;;2.97;;
63114;SDS011;49208;50.874;6.466;2022-09-01T07:25:38;4.95;;;2.40;;
63114;SDS011;49208;50.874;6.466;2022-09-01T07:28:07;4.28;;;2.45;;
63114;SDS011;49208;50.874;6.466;2022-09-01T07:30:38;5.07;;;2.22;;
63114;SDS011;49208;50.874;6.466;2022-09-01T07:33:05;5.18;;;2.22;;
63114;SDS011;49208;50.874;6.466;2022-09-01T07:35:35;4.88;;;2.00;;
63114;SDS011;49208;50.874;6.466;2022-09-01T07:38:02;6.03;;;2.42;;
63114;SDS011;49208;50.874;6.466;2022-09-01T07:40:29;4.00;;;2.03;;
63114;SDS011;49208;50.874;6.466;2022-09-01T07:42:55;5.97;;;2.40;;
63114;SDS011;49208;50.874;6.466;2022-09-01T07:45:21;5.97;;;2.13;;
63114;SDS011;49208;50.874;6.466;2022-09-01T07:47:49;6.68;;;2.30;;
63114;SDS011;49208;50.874;6.466;2022-09-01T07:50:15;3.50;;;2.00;;
63114;SDS011;49208;50.874;6.466;2022-09-01T07:57:35;4.30;;;2.50;;
63114;SDS011;49208;50.874;6.466;2022-09-01T08:00:00;7.00;;;2.87;;
63114;SDS011;49208;50.874;6.466;2022-09-01T08:02:26;3.47;;;2.25;;
63114;SDS011;49208;50.874;6.466;2022-09-01T08:04:52;4.00;;;2.58;;
63114;SDS011;49208;50.874;6.466;2022-09-01T08:07:17;6.10;;;2.78;;
63114;SDS011;49208;50.874;6.466;2022-09-01T08:09:43;4.35;;;2.85;;
63114;SDS011;49208;50.874;6.466;2022-09-01T08:12:08;8.20;;;2.95;;
63114;SDS011;49208;50.874;6.466;2022-09-01T08:14:34;6.20;;;2.88;;
63114;SDS011;49208;50.874;6.466;2022-09-01T08:16:59;4.05;;;2.10;;
63114;SDS011;49208;50.874;6.466;2022-09-01T08:19:25;6.38;;;2.38;;
63114;SDS011;49208;50.874;6.466;2022-09-01T08:21:50;7.68;;;2.42;;
63114;SDS011;49208;50.874;6.466;2022-09-01T08:24:16;4.45;;;2.40;;
63114;SDS011;49208;50.874;6.466;2022-09-01T08:26:41;4.88;;;2.05;;
63114;SDS011;49208;50.874;6.466;2022-09-01T08:29:08;5.05;;;2.08;;
63114;SDS011;49208;50.874;6.466;2022-09-01T08:34:00;3.63;;;2.00;;
63114;SDS011;49208;50.874;6.466;2022-09-01T08:36:27;3.70;;;2.05;;
63114;SDS011;49208;50.874;6.466;2022-09-01T08:38:52;4.38;;;2.35;;
63114;SDS011;49208;50.874;6.466;2022-09-01T08:47:02;3.85;;;2.08;;
63114;SDS011;49208;50.874;6.466;2022-09-01T08:49:31;6.88;;;2.05;;
63114;SDS011;49208;50.874;6.466;2022-09-01T08:52:10;4.70;;;2.03;;
63114;SDS011;49208;50.874;6.466;2022-09-01T08:57:13;6.88;;;2.22;;
63114;SDS011;49208;50.874;6.466;2022-09-01T08:59:43;3.63;;;1.88;;
63114;SDS011;49208;50.874;6.466;2022-09-01T09:10:16;6.40;;;1.90;;
63114;SDS011;49208;50.874;6.466;2022-09-01T09:21:04;5.13;;;2.40;;
63114;SDS011;49208;50.874;6.466;2022-09-01T09:23:42;4.15;;;2.00;;
63114;SDS011;49208;50.874;6.466;2022-09-01T09:26:10;6.68;;;2.20;;
63114;SDS011;49208;50.874;6.466;2022-09-01T09:28:35;5.80;;;2.40;;
63114;SDS011;49208;50.874;6.466;2022-09-01T09:33:49;5.53;;;1.90;;
63114;SDS011;49208;50.874;6.466;2022-09-01T09:36:19;3.93;;;2.00;;
63114;SDS011;49208;50.874;6.466;2022-09-01T09:38:46;4.43;;;1.90;;
63114;SDS011;49208;50.874;6.466;2022-09-01T09:41:25;4.65;;;1.75;;
63114;SDS011;49208;50.874;6.466;2022-09-01T09:43:54;4.00;;;1.97;;
63114;SDS011;49208;50.874;6.466;2022-09-01T09:51:36;4.95;;;1.92;;
63114;SDS011;49208;50.874;6.466;2022-09-01T09:54:09;5.45;;;2.10;;
63114;SDS011;49208;50.874;6.466;2022-09-01T09:56:37;3.95;;;1.77;;
63114;SDS011;49208;50.874;6.466;2022-09-01T09:59:14;4.57;;;2.03;;
63114;SDS011;49208;50.874;6.466;2022-09-01T10:01:51;8.50;;;2.40;;
63114;SDS011;49208;50.874;6.466;2022-09-01T10:04:37;5.53;;;1.73;;
63114;SDS011;49208;50.874;6.466;2022-09-01T10:07:21;4.40;;;1.95;;
63114;SDS011;49208;50.874;6.466;2022-09-01T10:09:50;6.05;;;1.80;;
63114;SDS011;49208;50.874;6.466;2022-09-01T10:12:17;6.57;;;2.00;;
63114;SDS011;49208;50.874;6.466;2022-09-01T10:15:25;5.47;;;2.00;;
63114;SDS011;49208;50.874;6.466;2022-09-01T10:17:39;4.20;;;1.65;;
63114;SDS011;49208;50.874;6.466;2022-09-01T10:20:08;5.82;;;1.85;;
63114;SDS011;49208;50.874;6.466;2022-09-01T10:22:39;3.30;;;1.40;;
63114;SDS011;49208;50.874;6.466;2022-09-01T10:25:05;2.55;;;1.23;;
63114;SDS011;49208;50.874;6.466;2022-09-01T10:27:34;3.33;;;1.40;;
63114;SDS011;49208;50.874;6.466;2022-09-01T10:30:12;2.88;;;1.35;;
63114;SDS011;49208;50.874;6.466;2022-09-01T10:32:44;3.35;;;1.35;;
63114;SDS011;49208;50.874;6.466;2022-09-01T10:35:16;2.42;;;1.10;;
63114;SDS011;49208;50.874;6.466;2022-09-01T10:37:46;7.20;;;1.30;;
63114;SDS011;49208;50.874;6.466;2022-09-01T10:40:13;3.10;;;1.20;;
63114;SDS011;49208;50.874;6.466;2022-09-01T10:42:43;3.65;;;1.27;;
63114;SDS011;49208;50.874;6.466;2022-09-01T10:45:17;5.28;;;1.70;;
63114;SDS011;49208;50.874;6.466;2022-09-01T10:47:53;4.70;;;1.38;;
63114;SDS011;49208;50.874;6.466;2022-09-01T10:50:29;5.73;;;1.80;;
63114;SDS011;49208;50.874;6.466;2022-09-01T10:53:01;6.25;;;1.50;;
63114;SDS011;49208;50.874;6.466;2022-09-01T10:55:33;3.85;;;1.30;;
63114;SDS011;49208;50.874;6.466;2022-09-01T11:01:00;4.28;;;1.50;;
63114;SDS011;49208;50.874;6.466;2022-09-01T11:05:59;4.30;;;1.80;;
63114;SDS011;49208;50.874;6.466;2022-09-01T11:10:54;4.10;;;1.83;;
63114;SDS011;49208;50.874;6.466;2022-09-01T11:16:32;2.92;;;1.40;;
63114;SDS011;49208;50.874;6.466;2022-09-01T11:25:30;2.88;;;1.70;;
63114;SDS011;49208;50.874;6.466;2022-09-01T11:28:03;6.20;;;1.70;;
63114;SDS011;49208;50.874;6.466;2022-09-01T11:30:53;5.00;;;1.70;;
63114;SDS011;49208;50.874;6.466;2022-09-01T11:38:57;4.90;;;1.80;;
63114;SDS011;49208;50.874;6.466;2022-09-01T11:44:23;6.57;;;1.77;;
63114;SDS011;49208;50.874;6.466;2022-09-01T11:46:51;3.03;;;1.77;;
63114;SDS011;49208;50.874;6.466;2022-09-01T11:51:57;3.90;;;1.88;;
63114;SDS011;49208;50.874;6.466;2022-09-01T11:54:24;6.15;;;1.90;;
63114;SDS011;49208;50.874;6.466;2022-09-01T11:56:51;3.47;;;1.73;;
63114;SDS011;49208;50.874;6.466;2022-09-01T11:59:36;5.00;;;1.83;;
63114;SDS011;49208;50.874;6.466;2022-09-01T12:02:02;4.17;;;2.00;;
63114;SDS011;49208;50.874;6.466;2022-09-01T12:04:34;2.90;;;1.90;;
63114;SDS011;49208;50.874;6.466;2022-09-01T12:07:05;3.75;;;1.80;;
63114;SDS011;49208;50.874;6.466;2022-09-01T12:09:44;4.32;;;1.83;;
63114;SDS011;49208;50.874;6.466;2022-09-01T12:12:31;4.40;;;1.80;;
63114;SDS011;49208;50.874;6.466;2022-09-01T12:15:06;2.70;;;1.60;;
63114;SDS011;49208;50.874;6.466;2022-09-01T12:17:42;3.33;;;1.95;;
63114;SDS011;49208;50.874;6.466;2022-09-01T12:23:03;4.10;;;2.30;;
63114;SDS011;49208;50.874;6.466;2022-09-01T12:25:49;3.33;;;2.17;;
63114;SDS011;49208;50.874;6.466;2022-09-01T12:28:17;3.85;;;2.17;;
63114;SDS011;49208;50.874;6.466;2022-09-01T12:30:42;3.60;;;1.90;;
63114;SDS011;49208;50.874;6.466;2022-09-01T12:33:09;3.80;;;1.90;;
63114;SDS011;49208;50.874;6.466;2022-09-01T12:35:38;4.20;;;2.03;;
63114;SDS011;49208;50.874;6.466;2022-09-01T12:40:58;3.05;;;1.90;;
63114;SDS011;49208;50.874;6.466;2022-09-01T12:43:57;3.87;;;2.07;;
63114;SDS011;49208;50.874;6.466;2022-09-01T12:46:38;2.95;;;1.83;;
63114;SDS011;49208;50.874;6.466;2022-09-01T12:49:17;4.13;;;1.95;;
63114;SDS011;49208;50.874;6.466;2022-09-01T12:51:44;6.07;;;2.30;;
63114;SDS011;49208;50.874;6.466;2022-09-01T12:54:12;3.60;;;1.90;;
63114;SDS011;49208;50.874;6.466;2022-09-01T12:56:37;3.70;;;1.93;;
63114;SDS011;49208;50.874;6.466;2022-09-01T13:02:24;3.95;;;2.00;;
63114;SDS011;49208;50.874;6.466;2022-09-01T13:05:16;4.03;;;2.22;;
63114;SDS011;49208;50.874;6.466;2022-09-01T13:07:56;4.10;;;2.20;;
63114;SDS011;49208;50.874;6.466;2022-09-01T13:10:34;3.25;;;2.05;;
63114;SDS011;49208;50.874;6.466;2022-09-01T13:13:02;5.55;;;2.20;;
63114;SDS011;49208;50.874;6.466;2022-09-01T13:17:55;4.72;;;2.50;;
63114;SDS011;49208;50.874;6.466;2022-09-01T13:20:21;3.90;;;2.43;;
63114;SDS011;49208;50.874;6.466;2022-09-01T13:22:46;4.00;;;2.50;;
63114;SDS011;49208;50.874;6.466;2022-09-01T13:25:13;4.30;;;2.50;;
63114;SDS011;49208;50.874;6.466;2022-09-01T13:27:42;3.67;;;2.33;;
63114;SDS011;49208;50.874;6.466;2022-09-01T13:30:09;4.13;;;2.65;;
63114;SDS011;49208;50.874;6.466;2022-09-01T13:32:36;4.22;;;2.35;;
63114;SDS011;49208;50.874;6.466;2022-09-01T13:35:01;3.77;;;2.17;;
63114;SDS011;49208;50.874;6.466;2022-09-01T13:37:27;4.03;;;2.03;;
63114;SDS011;49208;50.874;6.466;2022-09-01T13:39:52;3.80;;;2.20;;
63114;SDS011;49208;50.874;6.466;2022-09-01T13:42:18;4.80;;;2.30;;
63114;SDS011;49208;50.874;6.466;2022-09-01T13:44:43;3.90;;;2.30;;
63114;SDS011;49208;50.874;6.466;2022-09-01T13:47:09;3.67;;;2.40;;
63114;SDS011;49208;50.874;6.466;2022-09-01T13:49:35;4.50;;;2.60;;
63114;SDS011;49208;50.874;6.466;2022-09-01T13:52:00;4.73;;;2.43;;
63114;SDS011;49208;50.874;6.466;2022-09-01T13:54:26;4.23;;;2.27;;
63114;SDS011;49208;50.874;6.466;2022-09-01T13:56:51;4.57;;;2.53;;
63114;SDS011;49208;50.874;6.466;2022-09-01T13:59:17;4.10;;;1.93;;
63114;SDS011;49208;50.874;6.466;2022-09-01T14:01:42;4.00;;;2.40;;
63114;SDS011;49208;50.874;6.466;2022-09-01T14:04:08;4.93;;;2.37;;
63114;SDS011;49208;50.874;6.466;2022-09-01T14:06:43;5.07;;;2.80;;
63114;SDS011;49208;50.874;6.466;2022-09-01T14:09:09;3.78;;;2.40;;
63114;SDS011;49208;50.874;6.466;2022-09-01T14:14:01;4.67;;;2.63;;
63114;SDS011;49208;50.874;6.466;2022-09-01T14:16:27;5.57;;;2.57;;
63114;SDS011;49208;50.874;6.466;2022-09-01T14:18:52;6.87;;;2.47;;
63114;SDS011;49208;50.874;6.466;2022-09-01T14:21:18;4.47;;;2.70;;
63114;SDS011;49208;50.874;6.466;2022-09-01T14:23:43;3.47;;;2.13;;
63114;SDS011;49208;50.874;6.466;2022-09-01T14:26:11;3.65;;;2.28;;
63114;SDS011;49208;50.874;6.466;2022-09-01T14:28:50;4.43;;;2.38;;
63114;SDS011;49208;50.874;6.466;2022-09-01T14:31:21;6.13;;;2.30;;
63114;SDS011;49208;50.874;6.466;2022-09-01T14:33:48;5.25;;;2.33;;
63114;SDS011;49208;50.874;6.466;2022-09-01T14:36:23;3.80;;;2.20;;
63114;SDS011;49208;50.874;6.466;2022-09-01T14:41:16;4.20;;;2.60;;
63114;SDS011;49208;50.874;6.466;2022-09-01T14:43:45;4.75;;;2.58;;
63114;SDS011;49208;50.874;6.466;2022-09-01T14:46:11;5.27;;;2.80;;
63114;SDS011;49208;50.874;6.466;2022-09-01T14:48:37;5.40;;;2.75;;
63114;SDS011;49208;50.874;6.466;2022-09-01T14:51:07;3.78;;;2.50;;
63114;SDS011;49208;50.874;6.466;2022-09-01T14:53:34;4.65;;;2.58;;
63114;SDS011;49208;50.874;6.466;2022-09-01T14:56:00;3.78;;;2.40;;
63114;SDS011;49208;50.874;6.466;2022-09-01T14:58:27;4.55;;;2.67;;
63114;SDS011;49208;50.874;6.466;2022-09-01T15:05:46;5.88;;;3.00;;
63114;SDS011;49208;50.874;6.466;2022-09-01T15:08:11;5.17;;;2.87;;
63114;SDS011;49208;50.874;6.466;2022-09-01T15:10:37;4.70;;;3.00;;
63114;SDS011;49208;50.874;6.466;2022-09-01T15:13:04;5.63;;;2.70;;
63114;SDS011;49208;50.874;6.466;2022-09-01T15:15:30;4.20;;;2.65;;
63114;SDS011;49208;50.874;6.466;2022-09-01T15:17:57;3.83;;;2.53;;
63114;SDS011;49208;50.874;6.466;2022-09-01T15:20:23;5.30;;;2.90;;
63114;SDS011;49208;50.874;6.466;2022-09-01T15:23:08;4.22;;;2.83;;
63114;SDS011;49208;50.874;6.466;2022-09-01T15:25:40;4.50;;;2.58;;
63114;SDS011;49208;50.874;6.466;2022-09-01T15:28:06;3.47;;;2.40;;
63114;SDS011;49208;50.874;6.466;2022-09-01T15:30:32;3.57;;;2.57;;
63114;SDS011;49208;50.874;6.466;2022-09-01T15:35:25;5.93;;;2.80;;
63114;SDS011;49208;50.874;6.466;2022-09-01T15:37:52;5.63;;;2.67;;
63114;SDS011;49208;50.874;6.466;2022-09-01T15:42:44;5.23;;;2.80;;
63114;SDS011;49208;50.874;6.466;2022-09-01T15:45:11;5.20;;;2.53;;
63114;SDS011;49208;50.874;6.466;2022-09-01T15:47:39;4.55;;;2.55;;
63114;SDS011;49208;50.874;6.466;2022-09-01T15:50:06;3.63;;;2.33;;
63114;SDS011;49208;50.874;6.466;2022-09-01T15:52:46;5.05;;;3.00;;
63114;SDS011;49208;50.874;6.466;2022-09-01T15:55:57;4.47;;;2.70;;
63114;SDS011;49208;50.874;6.466;2022-09-01T15:58:08;5.97;;;2.60;;
63114;SDS011;49208;50.874;6.466;2022-09-01T16:00:36;4.07;;;2.70;;
63114;SDS011;49208;50.874;6.466;2022-09-01T16:03:03;4.43;;;2.35;;
63114;SDS011;49208;50.874;6.466;2022-09-01T16:05:30;4.13;;;2.50;;
63114;SDS011;49208;50.874;6.466;2022-09-01T16:07:57;4.70;;;3.25;;
63114;SDS011;49208;50.874;6.466;2022-09-01T16:10:27;6.10;;;2.78;;
63114;SDS011;49208;50.874;6.466;2022-09-01T16:12:54;4.55;;;2.88;;
63114;SDS011;49208;50.874;6.466;2022-09-01T16:15:21;4.37;;;2.90;;
63114;SDS011;49208;50.874;6.466;2022-09-01T16:23:20;3.72;;;2.38;;
63114;SDS011;49208;50.874;6.466;2022-09-01T16:25:51;4.18;;;2.75;;
63114;SDS011;49208;50.874;6.466;2022-09-01T16:28:28;3.90;;;2.60;;
63114;SDS011;49208;50.874;6.466;2022-09-01T16:31:00;4.20;;;2.60;;
63114;SDS011;49208;50.874;6.466;2022-09-01T16:33:30;6.05;;;2.70;;
63114;SDS011;49208;50.874;6.466;2022-09-01T16:39:00;5.25;;;2.72;;
63114;SDS011;49208;50.874;6.466;2022-09-01T16:41:58;6.05;;;2.90;;
63114;SDS011;49208;50.874;6.466;2022-09-01T16:48:07;4.63;;;2.80;;
63114;SDS011;49208;50.874;6.466;2022-09-01T16:56:06;4.97;;;3.00;;
63114;SDS011;49208;50.874;6.466;2022-09-01T17:03:53;6.45;;;2.83;;
63114;SDS011;49208;50.874;6.466;2022-09-01T17:10:04;4.18;;;2.53;;
63114;SDS011;49208;50.874;6.466;2022-09-01T17:12:11;5.38;;;3.03;;
63114;SDS011;49208;50.874;6.466;2022-09-01T17:14:40;4.35;;;2.45;;